createdAt,value
2023-01-17T00:00:03.596Z,3.03
2023-01-17T00:06:05.231Z,4.53
2023-01-17T00:11:25.959Z,2.03
2023-01-17T00:16:46.581Z,2.28
2023-01-17T00:22:39.810Z,1.92
2023-01-17T00:28:01.457Z,2.30
2023-01-17T00:33:23.092Z,2.25
2023-01-17T00:38:43.723Z,4.22
2023-01-17T00:44:23.118Z,2.80
2023-01-17T00:50:02.631Z,3.70
2023-01-17T00:55:41.662Z,2.20
2023-01-17T01:01:24.932Z,2.53
2023-01-17T01:07:04.349Z,2.78
2023-01-17T01:12:43.620Z,1.80
2023-01-17T01:18:24.826Z,1.98
2023-01-17T01:24:04.125Z,1.73
2023-01-17T01:29:43.236Z,1.60
2023-01-17T01:35:04.442Z,1.83
2023-01-17T01:40:25.492Z,2.03
2023-01-17T01:45:51.886Z,1.10
2023-01-17T01:51:19.383Z,2.05
2023-01-17T01:56:41.364Z,1.45
2023-01-17T02:02:02.366Z,1.70
2023-01-17T02:07:32.027Z,2.15
2023-01-17T02:12:53.317Z,2.00
2023-01-17T02:18:52.617Z,1.67
2023-01-17T02:24:22.897Z,2.03
2023-01-17T02:30:11.435Z,2.42
2023-01-17T02:35:48.187Z,1.58
2023-01-17T02:41:23.942Z,2.53
2023-01-17T02:46:52.297Z,1.00
2023-01-17T02:52:50.957Z,1.40
2023-01-17T02:58:25.211Z,2.85
2023-01-17T03:04:01.838Z,0.98
2023-01-17T03:09:25.067Z,0.50
2023-01-17T03:14:45.952Z,0.95
2023-01-17T03:20:06.768Z,0.95
2023-01-17T03:25:27.751Z,2.15
2023-01-17T03:30:48.863Z,1.10
2023-01-17T03:36:09.796Z,1.15
2023-01-17T03:41:30.761Z,0.65
2023-01-17T03:46:52.643Z,0.52
2023-01-17T03:52:13.567Z,1.85
2023-01-17T03:57:34.122Z,0.73
2023-01-17T04:02:55.343Z,0.77
2023-01-17T04:08:16.052Z,0.57
2023-01-17T04:13:36.805Z,0.55
2023-01-17T04:18:57.773Z,2.53
2023-01-17T04:24:18.745Z,0.50
2023-01-17T04:29:39.461Z,0.30
2023-01-17T04:35:00.276Z,0.47
2023-01-17T04:40:21.133Z,0.30
2023-01-17T04:45:41.678Z,0.50
2023-01-17T04:51:04.377Z,0.60
2023-01-17T04:56:25.174Z,0.70
2023-01-17T05:01:48.963Z,0.30
2023-01-17T05:07:09.751Z,0.60
2023-01-17T05:12:30.665Z,0.50
2023-01-17T05:17:53.364Z,0.73
2023-01-17T05:23:13.992Z,0.57
2023-01-17T05:28:34.636Z,1.60
2023-01-17T05:33:55.436Z,0.70
2023-01-17T05:39:16.175Z,0.75
2023-01-17T05:44:36.755Z,1.17
2023-01-17T05:49:57.455Z,0.68
2023-01-17T05:55:18.255Z,0.45
2023-01-17T06:00:39.363Z,0.63
2023-01-17T06:05:59.903Z,0.88
2023-01-17T06:11:20.729Z,0.55
2023-01-17T06:16:41.560Z,0.90
2023-01-17T06:22:04.288Z,1.27
2023-01-17T06:27:25.322Z,0.63
2023-01-17T06:32:52.510Z,1.13
2023-01-17T06:38:13.472Z,0.65
2023-01-17T06:43:35.008Z,0.30
2023-01-17T06:48:55.970Z,0.77
2023-01-17T06:54:16.723Z,1.52
2023-01-17T06:59:37.515Z,2.08
2023-01-17T07:04:58.287Z,0.80
2023-01-17T07:10:19.195Z,1.40
2023-01-17T07:15:40.345Z,1.20
2023-01-17T07:21:01.037Z,0.65
2023-01-17T07:26:21.728Z,2.35
2023-01-17T07:31:42.999Z,1.23
2023-01-17T07:37:03.850Z,0.93
2023-01-17T07:42:24.716Z,3.20
2023-01-17T07:47:45.470Z,2.58
2023-01-17T07:53:06.115Z,2.28
2023-01-17T07:58:26.839Z,1.23
2023-01-17T08:03:51.193Z,0.82
2023-01-17T08:09:11.809Z,0.88
2023-01-17T08:14:32.738Z,1.10
2023-01-17T08:19:53.842Z,3.38
2023-01-17T08:25:14.563Z,2.58
2023-01-17T08:30:35.582Z,1.00
2023-01-17T08:35:56.805Z,2.10
2023-01-17T08:41:17.523Z,0.60
2023-01-17T08:46:39.058Z,2.67
2023-01-17T08:52:00.217Z,1.65
2023-01-17T08:57:21.917Z,2.10
2023-01-17T09:02:43.111Z,2.50
2023-01-17T09:08:04.412Z,0.50
2023-01-17T09:13:25.116Z,3.03
2023-01-17T09:18:45.808Z,3.42
2023-01-17T09:24:06.735Z,1.92
2023-01-17T09:29:28.123Z,1.20
2023-01-17T09:34:49.010Z,1.40
2023-01-17T09:40:18.526Z,2.10
2023-01-17T09:45:39.318Z,0.83
2023-01-17T09:51:21.357Z,1.00
2023-01-17T09:56:49.020Z,2.58
2023-01-17T10:02:18.843Z,0.63
2023-01-17T10:08:14.939Z,3.53
2023-01-17T10:13:50.087Z,0.70
2023-01-17T10:19:17.025Z,1.02
2023-01-17T10:24:53.748Z,1.10
2023-01-17T10:30:46.159Z,1.42
2023-01-17T10:36:27.458Z,1.70
2023-01-17T10:41:58.497Z,1.38
2023-01-17T10:47:25.078Z,0.80
2023-01-17T10:53:17.301Z,1.55
2023-01-17T10:58:37.820Z,1.75
2023-01-17T11:03:58.933Z,0.30
2023-01-17T11:09:20.815Z,2.17
2023-01-17T11:15:01.654Z,1.25
2023-01-17T11:20:43.770Z,1.50
2023-01-17T11:26:07.735Z,0.63
2023-01-17T11:31:28.696Z,0.68
2023-01-17T11:36:50.268Z,0.65
2023-01-17T11:42:35.782Z,0.80
2023-01-17T11:48:09.126Z,0.68
2023-01-17T11:53:40.809Z,1.10
2023-01-17T11:59:23.492Z,1.02
2023-01-17T12:05:15.403Z,2.42
2023-01-17T12:10:50.237Z,0.70
2023-01-17T12:16:32.832Z,1.10
2023-01-17T12:22:26.285Z,1.73
2023-01-17T12:27:56.181Z,1.23
2023-01-17T12:33:23.042Z,0.75
2023-01-17T12:38:48.055Z,1.13
2023-01-17T12:44:13.716Z,1.60
2023-01-17T12:49:42.844Z,2.63
2023-01-17T12:55:10.739Z,0.40
2023-01-17T13:00:37.229Z,0.95
2023-01-17T13:05:58.136Z,0.60
2023-01-17T13:11:44.164Z,2.88
2023-01-17T13:17:13.368Z,0.85
2023-01-17T13:22:37.555Z,1.17
2023-01-17T13:28:05.995Z,1.23
2023-01-17T13:33:36.349Z,0.98
2023-01-17T13:39:15.301Z,1.58
2023-01-17T13:44:37.523Z,0.60
2023-01-17T13:49:58.834Z,0.85
2023-01-17T13:55:46.419Z,0.68
2023-01-17T14:01:11.481Z,1.88
2023-01-17T14:06:38.815Z,1.20
2023-01-17T14:12:05.996Z,1.20
2023-01-17T14:17:37.309Z,0.90
2023-01-17T14:23:01.523Z,1.35
2023-01-17T14:28:33.131Z,2.00
2023-01-17T14:33:54.554Z,1.83
2023-01-17T14:39:22.625Z,3.70
2023-01-17T14:45:00.502Z,4.00
2023-01-17T14:50:35.283Z,5.43
2023-01-17T14:56:02.552Z,7.55
2023-01-17T15:01:23.815Z,11.82
2023-01-17T15:06:45.787Z,6.85
2023-01-17T15:12:11.434Z,3.35
2023-01-17T15:17:32.502Z,3.88
2023-01-17T15:22:53.163Z,2.13
2023-01-17T15:28:16.258Z,2.90
2023-01-17T15:33:41.013Z,4.40
2023-01-17T15:39:07.295Z,3.97
2023-01-17T15:44:47.565Z,3.00
2023-01-17T15:50:23.723Z,7.15
2023-01-17T15:55:47.982Z,4.85
2023-01-17T16:01:15.345Z,2.70
2023-01-17T16:06:45.527Z,22.17
2023-01-17T16:12:06.535Z,11.00
2023-01-17T16:17:28.627Z,26.58
2023-01-17T16:22:50.334Z,18.65
2023-01-17T16:28:11.295Z,31.70
2023-01-17T16:33:32.002Z,20.67
2023-01-17T16:38:53.225Z,22.40
2023-01-17T16:44:14.251Z,19.42
2023-01-17T16:49:34.997Z,23.58
2023-01-17T16:54:55.709Z,25.45
2023-01-17T17:00:17.080Z,36.75
2023-01-17T17:05:38.322Z,34.35
2023-01-17T17:11:16.614Z,28.85
2023-01-17T17:16:39.032Z,26.67
2023-01-17T17:22:01.578Z,21.45
2023-01-17T17:27:26.491Z,20.67
2023-01-17T17:32:47.722Z,20.77
2023-01-17T17:38:08.481Z,41.60
2023-01-17T17:43:29.610Z,44.35
2023-01-17T17:48:50.893Z,32.30
2023-01-17T17:54:13.630Z,17.05
2023-01-17T17:59:37.118Z,11.73
2023-01-17T18:04:58.231Z,17.20
2023-01-17T18:10:19.108Z,23.70
2023-01-17T18:15:40.198Z,49.97
2023-01-17T18:21:16.095Z,56.10
2023-01-17T18:26:42.198Z,66.10
2023-01-17T18:32:03.318Z,60.25
2023-01-17T18:37:24.315Z,42.67
2023-01-17T18:42:45.350Z,39.33
2023-01-17T18:48:06.072Z,43.42
2023-01-17T18:53:27.649Z,18.92
2023-01-17T18:58:49.809Z,20.73
2023-01-17T19:04:13.026Z,26.25
2023-01-17T19:09:35.045Z,50.85
2023-01-17T19:14:55.905Z,25.13
2023-01-17T19:20:16.994Z,13.98
2023-01-17T19:25:37.998Z,12.20
2023-01-17T19:31:11.360Z,10.63
2023-01-17T19:36:34.469Z,13.27
2023-01-17T19:41:56.666Z,18.23
2023-01-17T19:47:17.595Z,35.10
2023-01-17T19:52:39.846Z,28.58
2023-01-17T19:58:03.013Z,16.27
2023-01-17T20:03:23.945Z,23.88
2023-01-17T20:08:45.369Z,15.70
2023-01-17T20:14:06.415Z,13.43
2023-01-17T20:19:29.478Z,13.15
2023-01-17T20:24:54.345Z,8.85
2023-01-17T20:30:20.377Z,10.18
2023-01-17T20:35:41.183Z,13.68
2023-01-17T20:41:01.918Z,9.57
2023-01-17T20:46:25.408Z,25.88
2023-01-17T20:51:47.521Z,17.13
2023-01-17T20:57:08.063Z,10.43
2023-01-17T21:02:30.128Z,10.75
2023-01-17T21:07:51.021Z,7.85
2023-01-17T21:13:11.562Z,8.30
2023-01-17T21:18:32.935Z,7.50
2023-01-17T21:23:55.936Z,8.75
2023-01-17T21:29:16.847Z,9.10
2023-01-17T21:34:38.215Z,8.35
2023-01-17T21:40:00.214Z,9.60
2023-01-17T21:45:21.071Z,10.70
2023-01-17T21:50:41.682Z,9.45
2023-01-17T21:56:22.937Z,8.88
2023-01-17T22:01:43.858Z,9.25
2023-01-17T22:07:04.672Z,6.45
2023-01-17T22:12:25.927Z,9.05
2023-01-17T22:17:47.022Z,11.43
2023-01-17T22:23:09.510Z,10.70
2023-01-17T22:28:32.002Z,10.15
2023-01-17T22:34:02.418Z,13.23
2023-01-17T22:39:23.280Z,11.73
2023-01-17T22:44:43.965Z,11.32
2023-01-17T22:50:06.643Z,13.95
2023-01-17T22:55:27.820Z,9.13
2023-01-17T23:00:49.687Z,8.57
2023-01-17T23:06:20.133Z,10.98
2023-01-17T23:11:52.882Z,11.40
2023-01-17T23:17:32.419Z,11.25
2023-01-17T23:22:53.089Z,13.80
2023-01-17T23:28:20.818Z,11.40
2023-01-17T23:33:42.804Z,11.80
2023-01-17T23:39:03.620Z,11.68
2023-01-17T23:44:27.245Z,11.85
2023-01-17T23:49:48.365Z,9.05
2023-01-17T23:55:09.364Z,12.75
